Terminal Aerodrome Forecast
Issued by NWS Sterling, VA

Home | Current Version | Previous Version | Text Only | Print | Product List | Glossary On
Versions: 1 2 3 4 5 6 7 8 9 10 11 12 13 14 15 16 17 18 19 20 21 22 23 24 25 26
000
FTUS41 KLWX 022300 AAA
TAFIAD
TAF AMD
KIAD 022348Z 0300/0406 25006KT P6SM VCTS BKN050CB BKN200
      TEMPO 0300/0301 VRB20KT 2SM TSRA OVC015CB
     FM030200 VRB03KT P6SM SCT050 BKN200
     FM030900 VRB03KT 5SM BR FEW050 SCT200
     FM031200 34005KT P6SM FEW050 SCT200
     FM032200 VRB04KT P6SM FEW050=

USA.gov is the U.S. government's official web portal to all federal, state and local government web resources and services.